sensor_id;sensor_type;location;lat;lon;timestamp;temperature;humidity
22742;DHT22;11538;48.884;8.696;2023-04-25T00:01:22;10.60;99.90
22742;DHT22;11538;48.884;8.696;2023-04-25T00:03:49;10.60;99.90
22742;DHT22;11538;48.884;8.696;2023-04-25T00:06:18;10.50;99.90
22742;DHT22;11538;48.884;8.696;2023-04-25T00:08:45;10.50;99.90
22742;DHT22;11538;48.884;8.696;2023-04-25T00:11:12;10.50;99.90
22742;DHT22;11538;48.884;8.696;2023-04-25T00:13:39;10.50;99.90
22742;DHT22;11538;48.884;8.696;2023-04-25T00:16:08;10.50;99.90
22742;DHT22;11538;48.884;8.696;2023-04-25T00:18:35;10.50;99.90
22742;DHT22;11538;48.884;8.696;2023-04-25T00:21:03;10.50;99.90
22742;DHT22;11538;48.884;8.696;2023-04-25T00:23:32;10.50;99.90
22742;DHT22;11538;48.884;8.696;2023-04-25T00:26:02;10.50;99.90
22742;DHT22;11538;48.884;8.696;2023-04-25T00:28:29;10.50;99.90
22742;DHT22;11538;48.884;8.696;2023-04-25T00:30:56;10.40;99.90
22742;DHT22;11538;48.884;8.696;2023-04-25T00:33:23;10.40;99.90
22742;DHT22;11538;48.884;8.696;2023-04-25T00:35:50;10.40;99.90
22742;DHT22;11538;48.884;8.696;2023-04-25T00:38:17;10.30;99.90
22742;DHT22;11538;48.884;8.696;2023-04-25T00:40:44;10.30;99.90
22742;DHT22;11538;48.884;8.696;2023-04-25T00:43:11;10.30;99.90
22742;DHT22;11538;48.884;8.696;2023-04-25T00:45:39;10.30;99.90
22742;DHT22;11538;48.884;8.696;2023-04-25T00:48:06;10.30;99.90
22742;DHT22;11538;48.884;8.696;2023-04-25T00:50:34;10.30;99.90
22742;DHT22;11538;48.884;8.696;2023-04-25T00:53:03;10.30;99.90
22742;DHT22;11538;48.884;8.696;2023-04-25T00:55:30;10.30;99.90
22742;DHT22;11538;48.884;8.696;2023-04-25T00:57:58;10.30;99.90
22742;DHT22;11538;48.884;8.696;2023-04-25T01:00:24;10.30;99.90
22742;DHT22;11538;48.884;8.696;2023-04-25T01:02:52;10.30;99.90
22742;DHT22;11538;48.884;8.696;2023-04-25T01:05:19;10.30;99.90
22742;DHT22;11538;48.884;8.696;2023-04-25T01:07:46;10.40;99.90
22742;DHT22;11538;48.884;8.696;2023-04-25T01:10:13;10.40;99.90
22742;DHT22;11538;48.884;8.696;2023-04-25T01:12:44;10.40;99.90
22742;DHT22;11538;48.884;8.696;2023-04-25T01:15:11;10.40;99.90
22742;DHT22;11538;48.884;8.696;2023-04-25T01:17:41;10.40;99.90
22742;DHT22;11538;48.884;8.696;2023-04-25T01:20:11;10.40;99.90
22742;DHT22;11538;48.884;8.696;2023-04-25T01:22:38;10.40;99.90
22742;DHT22;11538;48.884;8.696;2023-04-25T01:25:08;10.40;99.90
22742;DHT22;11538;48.884;8.696;2023-04-25T01:27:36;10.50;99.90
22742;DHT22;11538;48.884;8.696;2023-04-25T01:30:04;10.50;99.90
22742;DHT22;11538;48.884;8.696;2023-04-25T01:32:33;10.50;99.90
22742;DHT22;11538;48.884;8.696;2023-04-25T01:35:07;10.50;99.90
22742;DHT22;11538;48.884;8.696;2023-04-25T01:37:40;10.40;99.90
22742;DHT22;11538;48.884;8.696;2023-04-25T01:40:12;10.40;99.90
22742;DHT22;11538;48.884;8.696;2023-04-25T01:42:46;10.30;99.90
22742;DHT22;11538;48.884;8.696;2023-04-25T01:45:13;10.20;99.90
22742;DHT22;11538;48.884;8.696;2023-04-25T01:47:40;10.10;99.90
22742;DHT22;11538;48.884;8.696;2023-04-25T01:50:08;10.00;99.90
22742;DHT22;11538;48.884;8.696;2023-04-25T01:52:35;10.00;99.90
22742;DHT22;11538;48.884;8.696;2023-04-25T01:55:04;9.90;99.90
22742;DHT22;11538;48.884;8.696;2023-04-25T01:57:32;9.80;99.90
22742;DHT22;11538;48.884;8.696;2023-04-25T02:00:00;9.70;99.90
22742;DHT22;11538;48.884;8.696;2023-04-25T02:02:33;9.70;99.90
22742;DHT22;11538;48.884;8.696;2023-04-25T02:05:00;9.70;99.90
22742;DHT22;11538;48.884;8.696;2023-04-25T02:07:27;9.60;99.90
22742;DHT22;11538;48.884;8.696;2023-04-25T02:09:54;9.60;99.90
22742;DHT22;11538;48.884;8.696;2023-04-25T02:12:21;9.60;99.90
22742;DHT22;11538;48.884;8.696;2023-04-25T02:14:52;9.60;99.90
22742;DHT22;11538;48.884;8.696;2023-04-25T02:17:19;9.60;99.90
22742;DHT22;11538;48.884;8.696;2023-04-25T02:19:47;9.60;99.90
22742;DHT22;11538;48.884;8.696;2023-04-25T02:22:14;9.60;99.90
22742;DHT22;11538;48.884;8.696;2023-04-25T02:24:41;9.60;99.90
22742;DHT22;11538;48.884;8.696;2023-04-25T02:27:08;9.50;99.90
22742;DHT22;11538;48.884;8.696;2023-04-25T02:29:35;9.60;99.90
22742;DHT22;11538;48.884;8.696;2023-04-25T02:32:02;9.50;99.90
22742;DHT22;11538;48.884;8.696;2023-04-25T02:34:29;9.60;99.90
22742;DHT22;11538;48.884;8.696;2023-04-25T02:36:55;9.60;99.90
22742;DHT22;11538;48.884;8.696;2023-04-25T02:39:22;9.60;99.90
22742;DHT22;11538;48.884;8.696;2023-04-25T02:41:53;9.60;99.90
22742;DHT22;11538;48.884;8.696;2023-04-25T02:44:20;9.60;99.90
22742;DHT22;11538;48.884;8.696;2023-04-25T02:46:47;9.70;99.90
22742;DHT22;11538;48.884;8.696;2023-04-25T02:49:14;9.70;99.90
22742;DHT22;11538;48.884;8.696;2023-04-25T02:51:41;9.70;99.90
22742;DHT22;11538;48.884;8.696;2023-04-25T02:54:07;9.70;99.90
22742;DHT22;11538;48.884;8.696;2023-04-25T02:56:34;9.70;99.90
22742;DHT22;11538;48.884;8.696;2023-04-25T02:59:01;9.80;99.90
22742;DHT22;11538;48.884;8.696;2023-04-25T03:01:28;9.80;99.90
22742;DHT22;11538;48.884;8.696;2023-04-25T03:03:55;9.80;99.90
22742;DHT22;11538;48.884;8.696;2023-04-25T03:06:22;9.80;99.90
22742;DHT22;11538;48.884;8.696;2023-04-25T03:08:49;9.80;99.90
22742;DHT22;11538;48.884;8.696;2023-04-25T03:11:15;9.80;99.90
22742;DHT22;11538;48.884;8.696;2023-04-25T03:13:42;9.80;99.90
22742;DHT22;11538;48.884;8.696;2023-04-25T03:16:12;9.90;99.90
22742;DHT22;11538;48.884;8.696;2023-04-25T03:18:39;9.90;99.90
22742;DHT22;11538;48.884;8.696;2023-04-25T03:21:06;9.90;99.90
22742;DHT22;11538;48.884;8.696;2023-04-25T03:23:33;9.90;99.90
22742;DHT22;11538;48.884;8.696;2023-04-25T03:26:00;9.90;99.90
22742;DHT22;11538;48.884;8.696;2023-04-25T03:28:28;9.90;99.90
22742;DHT22;11538;48.884;8.696;2023-04-25T03:30:55;9.90;99.90
22742;DHT22;11538;48.884;8.696;2023-04-25T03:33:22;9.90;99.90
22742;DHT22;11538;48.884;8.696;2023-04-25T03:35:49;9.90;99.90
22742;DHT22;11538;48.884;8.696;2023-04-25T03:38:17;9.90;99.90
22742;DHT22;11538;48.884;8.696;2023-04-25T03:40:44;9.90;99.90
22742;DHT22;11538;48.884;8.696;2023-04-25T03:43:10;9.90;99.90
22742;DHT22;11538;48.884;8.696;2023-04-25T03:45:37;9.90;99.90
22742;DHT22;11538;48.884;8.696;2023-04-25T03:48:05;9.90;99.90
22742;DHT22;11538;48.884;8.696;2023-04-25T03:50:32;9.90;99.90
22742;DHT22;11538;48.884;8.696;2023-04-25T03:53:02;9.90;99.90
22742;DHT22;11538;48.884;8.696;2023-04-25T03:55:29;9.80;99.90
22742;DHT22;11538;48.884;8.696;2023-04-25T03:58:03;9.80;99.90
22742;DHT22;11538;48.884;8.696;2023-04-25T04:00:33;9.70;99.90
22742;DHT22;11538;48.884;8.696;2023-04-25T04:03:01;9.80;99.90
22742;DHT22;11538;48.884;8.696;2023-04-25T04:05:28;9.70;99.90
22742;DHT22;11538;48.884;8.696;2023-04-25T04:07:55;9.70;99.90
22742;DHT22;11538;48.884;8.696;2023-04-25T04:10:22;9.80;99.90
22742;DHT22;11538;48.884;8.696;2023-04-25T04:12:49;9.80;99.90
22742;DHT22;11538;48.884;8.696;2023-04-25T04:15:19;9.80;99.90
22742;DHT22;11538;48.884;8.696;2023-04-25T04:17:47;9.80;99.90
22742;DHT22;11538;48.884;8.696;2023-04-25T04:20:15;9.80;99.90
22742;DHT22;11538;48.884;8.696;2023-04-25T04:22:42;9.80;99.90
22742;DHT22;11538;48.884;8.696;2023-04-25T04:25:09;9.80;99.90
22742;DHT22;11538;48.884;8.696;2023-04-25T04:27:38;9.80;99.90
22742;DHT22;11538;48.884;8.696;2023-04-25T04:30:06;9.80;99.90
22742;DHT22;11538;48.884;8.696;2023-04-25T04:32:33;9.70;99.90
22742;DHT22;11538;48.884;8.696;2023-04-25T04:35:01;9.50;99.90
22742;DHT22;11538;48.884;8.696;2023-04-25T04:37:28;9.40;99.90
22742;DHT22;11538;48.884;8.696;2023-04-25T04:39:55;9.30;99.90
22742;DHT22;11538;48.884;8.696;2023-04-25T04:42:22;9.20;99.90
22742;DHT22;11538;48.884;8.696;2023-04-25T04:44:50;9.20;99.90
22742;DHT22;11538;48.884;8.696;2023-04-25T04:47:18;9.10;99.90
22742;DHT22;11538;48.884;8.696;2023-04-25T04:49:46;9.10;99.90
22742;DHT22;11538;48.884;8.696;2023-04-25T04:52:14;9.00;99.90
22742;DHT22;11538;48.884;8.696;2023-04-25T04:54:41;9.00;99.90
22742;DHT22;11538;48.884;8.696;2023-04-25T04:57:08;9.00;99.90
22742;DHT22;11538;48.884;8.696;2023-04-25T04:59:35;9.00;99.90
22742;DHT22;11538;48.884;8.696;2023-04-25T05:02:02;8.90;99.90
22742;DHT22;11538;48.884;8.696;2023-04-25T05:04:29;8.90;99.90
22742;DHT22;11538;48.884;8.696;2023-04-25T05:06:56;8.90;99.90
22742;DHT22;11538;48.884;8.696;2023-04-25T05:09:23;8.90;99.90
22742;DHT22;11538;48.884;8.696;2023-04-25T05:11:52;8.90;99.90
22742;DHT22;11538;48.884;8.696;2023-04-25T05:14:19;8.90;99.90
22742;DHT22;11538;48.884;8.696;2023-04-25T05:16:45;9.00;99.90
22742;DHT22;11538;48.884;8.696;2023-04-25T05:19:13;9.00;99.90
22742;DHT22;11538;48.884;8.696;2023-04-25T05:21:40;9.00;99.90
22742;DHT22;11538;48.884;8.696;2023-04-25T05:24:07;9.00;99.90
22742;DHT22;11538;48.884;8.696;2023-04-25T05:26:34;9.00;99.90
22742;DHT22;11538;48.884;8.696;2023-04-25T05:29:01;9.00;99.90
22742;DHT22;11538;48.884;8.696;2023-04-25T05:31:28;9.00;99.90
22742;DHT22;11538;48.884;8.696;2023-04-25T05:33:55;9.10;99.90
22742;DHT22;11538;48.884;8.696;2023-04-25T05:36:24;9.10;99.90
22742;DHT22;11538;48.884;8.696;2023-04-25T05:38:51;9.10;99.90
22742;DHT22;11538;48.884;8.696;2023-04-25T05:41:18;9.10;99.90
22742;DHT22;11538;48.884;8.696;2023-04-25T05:43:45;9.20;99.90
22742;DHT22;11538;48.884;8.696;2023-04-25T05:46:14;9.20;99.90
22742;DHT22;11538;48.884;8.696;2023-04-25T05:48:42;9.20;99.90
22742;DHT22;11538;48.884;8.696;2023-04-25T05:51:09;9.20;99.90
22742;DHT22;11538;48.884;8.696;2023-04-25T05:53:36;9.30;99.90
22742;DHT22;11538;48.884;8.696;2023-04-25T05:56:03;9.30;99.90
22742;DHT22;11538;48.884;8.696;2023-04-25T05:58:30;9.30;99.90
22742;DHT22;11538;48.884;8.696;2023-04-25T06:00:57;9.30;99.90
22742;DHT22;11538;48.884;8.696;2023-04-25T06:03:24;9.30;99.90
22742;DHT22;11538;48.884;8.696;2023-04-25T06:05:52;9.30;99.90
22742;DHT22;11538;48.884;8.696;2023-04-25T06:08:19;9.40;99.90
22742;DHT22;11538;48.884;8.696;2023-04-25T06:10:46;9.40;99.90
22742;DHT22;11538;48.884;8.696;2023-04-25T06:13:13;9.50;99.90
22742;DHT22;11538;48.884;8.696;2023-04-25T06:15:39;9.50;99.90
22742;DHT22;11538;48.884;8.696;2023-04-25T06:18:06;9.50;99.90
22742;DHT22;11538;48.884;8.696;2023-04-25T06:20:33;9.40;99.90
22742;DHT22;11538;48.884;8.696;2023-04-25T06:23:00;9.50;99.90
22742;DHT22;11538;48.884;8.696;2023-04-25T06:25:27;9.50;99.90
22742;DHT22;11538;48.884;8.696;2023-04-25T06:27:54;9.50;99.90
22742;DHT22;11538;48.884;8.696;2023-04-25T06:30:24;9.50;99.90
22742;DHT22;11538;48.884;8.696;2023-04-25T06:32:52;9.50;99.90
22742;DHT22;11538;48.884;8.696;2023-04-25T06:35:20;9.50;99.90
22742;DHT22;11538;48.884;8.696;2023-04-25T06:37:50;9.50;99.90
22742;DHT22;11538;48.884;8.696;2023-04-25T06:40:17;9.50;99.90
22742;DHT22;11538;48.884;8.696;2023-04-25T06:42:44;9.60;99.90
22742;DHT22;11538;48.884;8.696;2023-04-25T06:45:11;9.60;99.90
22742;DHT22;11538;48.884;8.696;2023-04-25T06:47:38;9.60;99.90
22742;DHT22;11538;48.884;8.696;2023-04-25T06:50:09;9.60;99.90
22742;DHT22;11538;48.884;8.696;2023-04-25T06:52:40;9.60;99.90
22742;DHT22;11538;48.884;8.696;2023-04-25T06:55:07;9.60;99.90
22742;DHT22;11538;48.884;8.696;2023-04-25T06:57:35;9.60;99.90
22742;DHT22;11538;48.884;8.696;2023-04-25T07:00:03;9.60;99.90
22742;DHT22;11538;48.884;8.696;2023-04-25T07:02:32;9.60;99.90
22742;DHT22;11538;48.884;8.696;2023-04-25T07:05:03;9.60;99.90
22742;DHT22;11538;48.884;8.696;2023-04-25T07:07:31;9.60;99.90
22742;DHT22;11538;48.884;8.696;2023-04-25T07:09:58;9.60;99.90
22742;DHT22;11538;48.884;8.696;2023-04-25T07:12:25;9.60;99.90
22742;DHT22;11538;48.884;8.696;2023-04-25T07:14:52;9.60;99.90
22742;DHT22;11538;48.884;8.696;2023-04-25T07:17:18;9.60;99.90
22742;DHT22;11538;48.884;8.696;2023-04-25T07:19:45;9.60;99.90
22742;DHT22;11538;48.884;8.696;2023-04-25T07:22:12;9.70;99.90
22742;DHT22;11538;48.884;8.696;2023-04-25T07:24:39;9.70;99.90
22742;DHT22;11538;48.884;8.696;2023-04-25T07:27:06;9.70;99.90
22742;DHT22;11538;48.884;8.696;2023-04-25T07:29:33;9.70;99.90
22742;DHT22;11538;48.884;8.696;2023-04-25T07:32:03;9.70;99.90
22742;DHT22;11538;48.884;8.696;2023-04-25T07:34:30;9.70;99.90
22742;DHT22;11538;48.884;8.696;2023-04-25T07:36:58;9.70;99.90
22742;DHT22;11538;48.884;8.696;2023-04-25T07:39:26;9.80;99.90
22742;DHT22;11538;48.884;8.696;2023-04-25T07:41:53;9.70;99.90
22742;DHT22;11538;48.884;8.696;2023-04-25T07:44:21;9.70;99.90
22742;DHT22;11538;48.884;8.696;2023-04-25T07:46:48;9.60;99.90
22742;DHT22;11538;48.884;8.696;2023-04-25T07:49:15;9.60;99.90
22742;DHT22;11538;48.884;8.696;2023-04-25T07:51:42;9.60;99.90
22742;DHT22;11538;48.884;8.696;2023-04-25T07:54:14;9.60;99.90
22742;DHT22;11538;48.884;8.696;2023-04-25T07:56:42;9.60;99.90
22742;DHT22;11538;48.884;8.696;2023-04-25T07:59:18;9.60;99.90
22742;DHT22;11538;48.884;8.696;2023-04-25T08:01:45;9.50;99.90
22742;DHT22;11538;48.884;8.696;2023-04-25T08:04:12;9.60;99.90
22742;DHT22;11538;48.884;8.696;2023-04-25T08:06:40;9.50;99.90
22742;DHT22;11538;48.884;8.696;2023-04-25T08:09:07;9.60;99.90
22742;DHT22;11538;48.884;8.696;2023-04-25T08:11:36;9.60;99.90
22742;DHT22;11538;48.884;8.696;2023-04-25T08:14:03;9.60;99.90
22742;DHT22;11538;48.884;8.696;2023-04-25T08:16:32;9.60;99.90
22742;DHT22;11538;48.884;8.696;2023-04-25T08:18:59;9.60;99.90
22742;DHT22;11538;48.884;8.696;2023-04-25T08:21:27;9.50;99.90
22742;DHT22;11538;48.884;8.696;2023-04-25T08:23:54;9.50;99.90
22742;DHT22;11538;48.884;8.696;2023-04-25T08:26:21;9.40;99.90
22742;DHT22;11538;48.884;8.696;2023-04-25T08:28:48;9.40;99.90
22742;DHT22;11538;48.884;8.696;2023-04-25T08:31:16;9.40;99.90
22742;DHT22;11538;48.884;8.696;2023-04-25T08:33:43;9.40;99.90
22742;DHT22;11538;48.884;8.696;2023-04-25T08:36:11;9.40;99.90
22742;DHT22;11538;48.884;8.696;2023-04-25T08:38:38;9.40;99.90
22742;DHT22;11538;48.884;8.696;2023-04-25T08:41:05;9.30;99.90
22742;DHT22;11538;48.884;8.696;2023-04-25T08:43:34;9.30;99.90
22742;DHT22;11538;48.884;8.696;2023-04-25T08:46:02;9.30;99.90
22742;DHT22;11538;48.884;8.696;2023-04-25T08:48:32;9.30;99.90
22742;DHT22;11538;48.884;8.696;2023-04-25T08:51:01;9.30;99.90
22742;DHT22;11538;48.884;8.696;2023-04-25T08:53:32;9.30;99.90
22742;DHT22;11538;48.884;8.696;2023-04-25T08:56:02;9.30;99.90
22742;DHT22;11538;48.884;8.696;2023-04-25T08:58:29;9.30;99.90
22742;DHT22;11538;48.884;8.696;2023-04-25T09:00:57;9.30;99.90
22742;DHT22;11538;48.884;8.696;2023-04-25T09:03:24;9.40;99.90
22742;DHT22;11538;48.884;8.696;2023-04-25T09:05:51;9.40;99.90
22742;DHT22;11538;48.884;8.696;2023-04-25T09:08:19;9.50;99.90
22742;DHT22;11538;48.884;8.696;2023-04-25T09:10:46;9.50;99.90
22742;DHT22;11538;48.884;8.696;2023-04-25T09:13:14;9.60;99.90
22742;DHT22;11538;48.884;8.696;2023-04-25T09:15:55;9.60;99.90
22742;DHT22;11538;48.884;8.696;2023-04-25T09:18:24;9.70;99.90
22742;DHT22;11538;48.884;8.696;2023-04-25T09:23:48;9.60;99.90
22742;DHT22;11538;48.884;8.696;2023-04-25T09:26:19;9.60;99.90
22742;DHT22;11538;48.884;8.696;2023-04-25T09:28:47;9.70;99.90
22742;DHT22;11538;48.884;8.696;2023-04-25T09:31:23;9.70;99.90
22742;DHT22;11538;48.884;8.696;2023-04-25T09:34:00;9.70;99.90
22742;DHT22;11538;48.884;8.696;2023-04-25T09:36:30;9.70;99.90
22742;DHT22;11538;48.884;8.696;2023-04-25T09:39:01;9.70;99.90
22742;DHT22;11538;48.884;8.696;2023-04-25T09:41:28;9.70;99.90
22742;DHT22;11538;48.884;8.696;2023-04-25T09:43:57;9.80;99.90
22742;DHT22;11538;48.884;8.696;2023-04-25T09:46:35;9.70;99.90
22742;DHT22;11538;48.884;8.696;2023-04-25T09:49:08;9.70;99.90
22742;DHT22;11538;48.884;8.696;2023-04-25T09:51:35;9.70;99.90
22742;DHT22;11538;48.884;8.696;2023-04-25T09:54:03;9.80;99.90
22742;DHT22;11538;48.884;8.696;2023-04-25T09:56:31;9.80;99.90
22742;DHT22;11538;48.884;8.696;2023-04-25T09:59:06;9.80;99.90
22742;DHT22;11538;48.884;8.696;2023-04-25T10:01:35;9.80;99.90
22742;DHT22;11538;48.884;8.696;2023-04-25T10:04:10;9.90;99.90
22742;DHT22;11538;48.884;8.696;2023-04-25T10:06:38;10.10;99.90
22742;DHT22;11538;48.884;8.696;2023-04-25T10:09:07;10.10;99.90
22742;DHT22;11538;48.884;8.696;2023-04-25T10:11:35;10.10;99.90
22742;DHT22;11538;48.884;8.696;2023-04-25T10:14:03;10.10;99.90
22742;DHT22;11538;48.884;8.696;2023-04-25T10:16:34;10.00;99.90
22742;DHT22;11538;48.884;8.696;2023-04-25T10:19:02;10.00;99.90
22742;DHT22;11538;48.884;8.696;2023-04-25T10:21:32;9.90;99.90
22742;DHT22;11538;48.884;8.696;2023-04-25T10:24:02;9.80;99.90
22742;DHT22;11538;48.884;8.696;2023-04-25T10:26:29;9.70;99.90
22742;DHT22;11538;48.884;8.696;2023-04-25T10:29:02;9.60;99.90
22742;DHT22;11538;48.884;8.696;2023-04-25T10:31:30;9.50;99.90
22742;DHT22;11538;48.884;8.696;2023-04-25T10:33:59;9.50;99.90
22742;DHT22;11538;48.884;8.696;2023-04-25T10:36:31;9.50;99.90
22742;DHT22;11538;48.884;8.696;2023-04-25T10:39:06;9.50;99.90
22742;DHT22;11538;48.884;8.696;2023-04-25T10:44:21;9.60;99.90
22742;DHT22;11538;48.884;8.696;2023-04-25T10:46:48;9.60;99.90
22742;DHT22;11538;48.884;8.696;2023-04-25T10:49:29;9.60;99.90
22742;DHT22;11538;48.884;8.696;2023-04-25T10:54:53;9.60;99.90
22742;DHT22;11538;48.884;8.696;2023-04-25T10:57:47;9.50;99.90
22742;DHT22;11538;48.884;8.696;2023-04-25T11:00:20;9.50;99.90
22742;DHT22;11538;48.884;8.696;2023-04-25T11:03:16;9.40;99.90
22742;DHT22;11538;48.884;8.696;2023-04-25T11:05:45;9.40;99.90
22742;DHT22;11538;48.884;8.696;2023-04-25T11:08:36;9.30;99.90
22742;DHT22;11538;48.884;8.696;2023-04-25T11:11:29;9.30;99.90
22742;DHT22;11538;48.884;8.696;2023-04-25T11:13:56;9.30;99.90
22742;DHT22;11538;48.884;8.696;2023-04-25T11:16:26;9.30;99.90
22742;DHT22;11538;48.884;8.696;2023-04-25T11:18:57;9.40;99.90
22742;DHT22;11538;48.884;8.696;2023-04-25T11:21:28;9.40;99.90
22742;DHT22;11538;48.884;8.696;2023-04-25T11:23:59;9.40;99.90
22742;DHT22;11538;48.884;8.696;2023-04-25T11:26:26;9.40;99.90
22742;DHT22;11538;48.884;8.696;2023-04-25T11:28:57;9.40;99.90
22742;DHT22;11538;48.884;8.696;2023-04-25T11:31:26;9.40;99.90
22742;DHT22;11538;48.884;8.696;2023-04-25T11:33:54;9.30;99.90
22742;DHT22;11538;48.884;8.696;2023-04-25T11:36:24;9.30;99.90
22742;DHT22;11538;48.884;8.696;2023-04-25T11:38:53;9.30;99.90
22742;DHT22;11538;48.884;8.696;2023-04-25T11:41:20;9.30;99.90
22742;DHT22;11538;48.884;8.696;2023-04-25T11:43:48;9.30;99.90
22742;DHT22;11538;48.884;8.696;2023-04-25T11:46:18;9.40;99.90
22742;DHT22;11538;48.884;8.696;2023-04-25T11:48:46;9.40;99.90
22742;DHT22;11538;48.884;8.696;2023-04-25T11:51:14;9.50;99.90
22742;DHT22;11538;48.884;8.696;2023-04-25T11:53:42;9.60;99.90
22742;DHT22;11538;48.884;8.696;2023-04-25T11:56:11;9.80;99.90
22742;DHT22;11538;48.884;8.696;2023-04-25T11:59:01;9.90;99.90
22742;DHT22;11538;48.884;8.696;2023-04-25T12:01:30;10.00;99.90
22742;DHT22;11538;48.884;8.696;2023-04-25T12:04:15;10.10;99.90
22742;DHT22;11538;48.884;8.696;2023-04-25T12:06:56;10.10;99.90
22742;DHT22;11538;48.884;8.696;2023-04-25T12:09:31;10.20;99.90
22742;DHT22;11538;48.884;8.696;2023-04-25T12:12:00;10.20;99.90
22742;DHT22;11538;48.884;8.696;2023-04-25T12:14:34;10.20;99.90
22742;DHT22;11538;48.884;8.696;2023-04-25T12:17:05;10.30;99.90
22742;DHT22;11538;48.884;8.696;2023-04-25T12:19:35;10.30;99.90
22742;DHT22;11538;48.884;8.696;2023-04-25T12:22:19;10.20;99.90
22742;DHT22;11538;48.884;8.696;2023-04-25T12:24:48;10.30;99.90
22742;DHT22;11538;48.884;8.696;2023-04-25T12:27:17;10.30;99.90
22742;DHT22;11538;48.884;8.696;2023-04-25T12:29:53;10.40;99.90
22742;DHT22;11538;48.884;8.696;2023-04-25T12:32:21;10.40;99.90
22742;DHT22;11538;48.884;8.696;2023-04-25T12:34:49;10.40;99.90
22742;DHT22;11538;48.884;8.696;2023-04-25T12:37:16;10.40;99.90
22742;DHT22;11538;48.884;8.696;2023-04-25T12:39:42;10.50;99.90
22742;DHT22;11538;48.884;8.696;2023-04-25T12:42:09;10.40;99.90
22742;DHT22;11538;48.884;8.696;2023-04-25T12:44:39;10.50;99.90
22742;DHT22;11538;48.884;8.696;2023-04-25T12:47:07;10.50;99.90
22742;DHT22;11538;48.884;8.696;2023-04-25T12:49:34;10.60;99.90
22742;DHT22;11538;48.884;8.696;2023-04-25T12:52:01;10.60;99.90
22742;DHT22;11538;48.884;8.696;2023-04-25T12:54:28;10.70;99.90
22742;DHT22;11538;48.884;8.696;2023-04-25T12:56:55;10.80;99.90
22742;DHT22;11538;48.884;8.696;2023-04-25T12:59:22;11.00;99.90
22742;DHT22;11538;48.884;8.696;2023-04-25T13:01:50;11.10;99.90
22742;DHT22;11538;48.884;8.696;2023-04-25T13:04:17;11.30;99.90
22742;DHT22;11538;48.884;8.696;2023-04-25T13:06:47;11.80;99.90
22742;DHT22;11538;48.884;8.696;2023-04-25T13:09:14;12.00;99.90
22742;DHT22;11538;48.884;8.696;2023-04-25T13:11:42;12.20;99.90
22742;DHT22;11538;48.884;8.696;2023-04-25T13:14:09;12.20;99.90
22742;DHT22;11538;48.884;8.696;2023-04-25T13:16:36;12.20;99.90
22742;DHT22;11538;48.884;8.696;2023-04-25T13:19:03;12.10;99.90
22742;DHT22;11538;48.884;8.696;2023-04-25T13:21:30;12.00;99.90
22742;DHT22;11538;48.884;8.696;2023-04-25T13:24:00;11.90;99.90
22742;DHT22;11538;48.884;8.696;2023-04-25T13:26:27;11.80;99.90
22742;DHT22;11538;48.884;8.696;2023-04-25T13:28:54;11.80;99.90
22742;DHT22;11538;48.884;8.696;2023-04-25T13:31:21;11.80;99.90
22742;DHT22;11538;48.884;8.696;2023-04-25T13:33:48;11.90;99.90
22742;DHT22;11538;48.884;8.696;2023-04-25T13:36:15;12.10;99.90
22742;DHT22;11538;48.884;8.696;2023-04-25T13:38:42;12.10;99.90
22742;DHT22;11538;48.884;8.696;2023-04-25T13:41:10;12.10;99.90
22742;DHT22;11538;48.884;8.696;2023-04-25T13:43:42;12.10;99.90
22742;DHT22;11538;48.884;8.696;2023-04-25T13:46:08;12.10;99.90
22742;DHT22;11538;48.884;8.696;2023-04-25T13:48:56;12.20;99.90
22742;DHT22;11538;48.884;8.696;2023-04-25T13:51:35;12.10;99.90
22742;DHT22;11538;48.884;8.696;2023-04-25T13:54:02;12.10;99.90
22742;DHT22;11538;48.884;8.696;2023-04-25T13:56:30;12.00;99.90
22742;DHT22;11538;48.884;8.696;2023-04-25T13:58:56;11.90;99.90
22742;DHT22;11538;48.884;8.696;2023-04-25T14:01:23;11.90;99.90
22742;DHT22;11538;48.884;8.696;2023-04-25T14:03:51;11.80;99.90
22742;DHT22;11538;48.884;8.696;2023-04-25T14:06:18;11.80;99.90
22742;DHT22;11538;48.884;8.696;2023-04-25T14:08:53;11.80;99.90
22742;DHT22;11538;48.884;8.696;2023-04-25T14:11:20;11.80;99.90
22742;DHT22;11538;48.884;8.696;2023-04-25T14:13:47;11.60;99.90
22742;DHT22;11538;48.884;8.696;2023-04-25T14:16:16;11.50;99.90
22742;DHT22;11538;48.884;8.696;2023-04-25T14:18:43;11.60;99.90
22742;DHT22;11538;48.884;8.696;2023-04-25T14:21:10;11.50;99.90
22742;DHT22;11538;48.884;8.696;2023-04-25T14:23:37;11.50;99.90
22742;DHT22;11538;48.884;8.696;2023-04-25T14:26:04;11.50;99.90
22742;DHT22;11538;48.884;8.696;2023-04-25T14:28:32;11.50;99.90
22742;DHT22;11538;48.884;8.696;2023-04-25T14:30:59;11.60;99.90
22742;DHT22;11538;48.884;8.696;2023-04-25T14:33:27;11.80;99.90
22742;DHT22;11538;48.884;8.696;2023-04-25T14:35:54;12.50;99.90
22742;DHT22;11538;48.884;8.696;2023-04-25T14:38:21;13.00;99.90
22742;DHT22;11538;48.884;8.696;2023-04-25T14:40:49;13.60;99.90
22742;DHT22;11538;48.884;8.696;2023-04-25T14:43:17;14.20;99.90
22742;DHT22;11538;48.884;8.696;2023-04-25T14:45:44;14.60;99.90
22742;DHT22;11538;48.884;8.696;2023-04-25T14:48:11;15.10;99.90
22742;DHT22;11538;48.884;8.696;2023-04-25T14:50:38;15.50;99.90
22742;DHT22;11538;48.884;8.696;2023-04-25T14:53:05;15.80;99.90
22742;DHT22;11538;48.884;8.696;2023-04-25T14:55:32;16.00;99.90
22742;DHT22;11538;48.884;8.696;2023-04-25T14:57:59;16.20;99.90
22742;DHT22;11538;48.884;8.696;2023-04-25T15:00:26;16.10;99.90
22742;DHT22;11538;48.884;8.696;2023-04-25T15:02:53;16.00;99.90
22742;DHT22;11538;48.884;8.696;2023-04-25T15:05:20;15.80;99.90
22742;DHT22;11538;48.884;8.696;2023-04-25T15:07:47;15.50;99.90
22742;DHT22;11538;48.884;8.696;2023-04-25T15:10:14;15.20;99.90
22742;DHT22;11538;48.884;8.696;2023-04-25T15:12:43;14.90;99.90
22742;DHT22;11538;48.884;8.696;2023-04-25T15:15:13;14.70;99.90
22742;DHT22;11538;48.884;8.696;2023-04-25T15:17:52;14.50;99.90
22742;DHT22;11538;48.884;8.696;2023-04-25T15:20:24;14.30;99.90
22742;DHT22;11538;48.884;8.696;2023-04-25T15:22:52;14.10;99.90
22742;DHT22;11538;48.884;8.696;2023-04-25T15:25:20;13.90;99.90
22742;DHT22;11538;48.884;8.696;2023-04-25T15:27:46;13.80;99.90
22742;DHT22;11538;48.884;8.696;2023-04-25T15:30:16;13.60;99.90
22742;DHT22;11538;48.884;8.696;2023-04-25T15:32:47;13.50;99.90
22742;DHT22;11538;48.884;8.696;2023-04-25T15:35:15;13.30;99.90
22742;DHT22;11538;48.884;8.696;2023-04-25T15:37:42;13.30;99.90
22742;DHT22;11538;48.884;8.696;2023-04-25T15:40:12;13.20;99.90
22742;DHT22;11538;48.884;8.696;2023-04-25T15:42:43;13.10;99.90
22742;DHT22;11538;48.884;8.696;2023-04-25T15:45:20;13.10;99.90
22742;DHT22;11538;48.884;8.696;2023-04-25T15:47:52;13.10;99.90
22742;DHT22;11538;48.884;8.696;2023-04-25T15:50:20;13.10;99.90
22742;DHT22;11538;48.884;8.696;2023-04-25T15:52:51;13.10;99.90
22742;DHT22;11538;48.884;8.696;2023-04-25T15:55:18;13.10;99.90
22742;DHT22;11538;48.884;8.696;2023-04-25T15:57:52;13.10;99.90